Time;durP1;ratioP1;P1;durP2;ratioP2;P2;SDS_P1;SDS_P2;PMS_P1;PMS_P2;Temp;Humidity;BMP_temperature;BMP_pressure;BME280_temperature;BME280_humidity;BME280_pressure;Samples;Min_cycle;Max_cycle;Signal;HPM_P1;HPM_P2
2023/11/01 00:00:49;;;;;;;5.60;3.38;;;;;;;;;;5115678;28;20055;-61
2023/11/01 00:03:15;;;;;;;8.88;3.78;;;;;;;;;;5115317;28;20051;-62
2023/11/01 00:05:42;;;;;;;6.57;3.70;;;;;;;;;;5115553;28;20052;-62
2023/11/01 00:08:09;;;;;;;8.18;3.92;;;;;;;;;;5114931;28;20047;-61
2023/11/01 00:10:37;;;;;;;6.15;3.53;;;;;;;;;;5115192;28;20047;-61
2023/11/01 00:13:04;;;;;;;5.47;3.40;;;;;;;;;;5115002;28;20054;-63
2023/11/01 00:15:32;;;;;;;6.47;3.80;;;;;;;;;;5115513;28;20059;-62
2023/11/01 00:17:59;;;;;;;5.28;3.00;;;;;;;;;;5115310;28;20377;-61
2023/11/01 00:20:26;;;;;;;6.45;3.67;;;;;;;;;;5114693;28;20055;-61
2023/11/01 00:22:53;;;;;;;8.70;3.30;;;;;;;;;;5114924;28;20062;-61
2023/11/01 00:25:20;;;;;;;7.65;3.55;;;;;;;;;;5114905;28;20059;-61
2023/11/01 00:27:48;;;;;;;7.35;3.83;;;;;;;;;;5114986;28;20064;-61
2023/11/01 00:30:15;;;;;;;7.47;4.00;;;;;;;;;;5114759;28;20066;-61
2023/11/01 00:32:41;;;;;;;8.23;5.07;;;;;;;;;;5114953;28;20052;-62
2023/11/01 00:35:08;;;;;;;8.32;4.20;;;;;;;;;;5114624;28;20400;-61
2023/11/01 00:37:35;;;;;;;5.70;4.30;;;;;;;;;;5114573;28;20059;-61
2023/11/01 00:40:02;;;;;;;6.90;4.22;;;;;;;;;;5114898;28;20063;-61
2023/11/01 00:42:29;;;;;;;8.30;3.63;;;;;;;;;;5114381;28;20047;-61
2023/11/01 00:44:57;;;;;;;7.80;3.15;;;;;;;;;;5114391;28;20460;-61
2023/11/01 00:47:24;;;;;;;7.38;3.67;;;;;;;;;;5114490;28;20058;-61
2023/11/01 00:49:51;;;;;;;8.73;3.47;;;;;;;;;;5114030;28;20062;-63
2023/11/01 00:52:17;;;;;;;7.22;3.60;;;;;;;;;;5114402;28;20060;-61
2023/11/01 00:54:44;;;;;;;6.22;3.40;;;;;;;;;;5102900;28;20393;-60
2023/11/01 00:57:11;;;;;;;8.90;3.45;;;;;;;;;;5093537;28;20412;-61
2023/11/01 00:59:38;;;;;;;5.47;3.00;;;;;;;;;;5093395;28;20378;-61
2023/11/01 01:02:06;;;;;;;6.97;3.22;;;;;;;;;;5093560;28;20409;-61
2023/11/01 01:04:33;;;;;;;9.73;4.05;;;;;;;;;;5093467;28;20048;-61
2023/11/01 01:07:00;;;;;;;7.07;3.33;;;;;;;;;;5093150;28;20052;-61
2023/11/01 01:09:26;;;;;;;8.30;2.97;;;;;;;;;;5093503;28;20058;-62
2023/11/01 01:11:53;;;;;;;7.97;3.30;;;;;;;;;;5093465;28;20508;-61
2023/11/01 01:14:20;;;;;;;6.25;2.95;;;;;;;;;;5093731;28;20400;-61
2023/11/01 01:16:47;;;;;;;7.95;2.78;;;;;;;;;;5093260;28;20052;-62
2023/11/01 01:19:22;;;;;;;8.02;3.53;;;;;;;;;;5093428;28;20047;-62
2023/11/01 01:21:48;;;;;;;6.88;3.00;;;;;;;;;;5091273;28;20417;-61
2023/11/01 01:24:16;;;;;;;7.18;2.90;;;;;;;;;;5092783;28;20059;-61
2023/11/01 01:26:43;;;;;;;6.45;2.85;;;;;;;;;;5093467;28;20401;-61
2023/11/01 01:29:12;;;;;;;6.10;3.10;;;;;;;;;;5093420;28;20063;-61
2023/11/01 01:31:41;;;;;;;5.70;2.53;;;;;;;;;;5093695;28;20056;-61
2023/11/01 01:34:07;;;;;;;6.28;2.70;;;;;;;;;;5093442;28;20051;-61
2023/11/01 01:36:35;;;;;;;4.40;2.53;;;;;;;;;;5092874;28;20054;-61
2023/11/01 01:39:02;;;;;;;5.47;2.50;;;;;;;;;;5093006;28;20048;-61
2023/11/01 01:41:29;;;;;;;10.38;2.33;;;;;;;;;;5093397;28;20503;-61
2023/11/01 01:43:56;;;;;;;5.25;2.83;;;;;;;;;;5093069;28;20052;-61
2023/11/01 01:46:23;;;;;;;6.22;2.28;;;;;;;;;;5092977;28;20052;-60
2023/11/01 01:48:53;;;;;;;4.20;1.63;;;;;;;;;;5092571;28;20048;-61
2023/11/01 01:51:20;;;;;;;3.58;1.67;;;;;;;;;;5092308;28;20055;-61
2023/11/01 01:53:49;;;;;;;4.40;1.90;;;;;;;;;;5092164;28;20067;-61
2023/11/01 01:56:17;;;;;;;4.30;1.85;;;;;;;;;;5091943;28;20051;-61
2023/11/01 01:58:45;;;;;;;3.58;1.73;;;;;;;;;;5092070;28;20052;-61
2023/11/01 02:01:12;;;;;;;5.28;1.77;;;;;;;;;;5091964;28;20047;-61
2023/11/01 02:03:39;;;;;;;3.35;1.73;;;;;;;;;;5091778;28;20477;-61
2023/11/01 02:06:07;;;;;;;5.93;2.13;;;;;;;;;;5092010;28;20400;-61
2023/11/01 02:08:34;;;;;;;5.65;2.35;;;;;;;;;;5091658;28;20401;-61
2023/11/01 02:11:02;;;;;;;3.97;2.05;;;;;;;;;;5091933;28;20054;-61
2023/11/01 02:13:29;;;;;;;8.70;2.45;;;;;;;;;;5092025;28;20436;-62
2023/11/01 02:15:56;;;;;;;5.18;2.00;;;;;;;;;;5091911;28;20043;-62
2023/11/01 02:18:23;;;;;;;7.25;2.08;;;;;;;;;;5091830;28;20056;-61
2023/11/01 02:20:51;;;;;;;4.88;2.00;;;;;;;;;;5091121;28;20052;-62
2023/11/01 02:23:29;;;;;;;4.82;2.53;;;;;;;;;;5091758;28;20058;-62
2023/11/01 02:25:58;;;;;;;3.97;1.98;;;;;;;;;;5091549;28;20492;-62
2023/11/01 02:28:24;;;;;;;5.60;1.80;;;;;;;;;;5091860;28;20059;-62
2023/11/01 02:30:54;;;;;;;5.75;2.08;;;;;;;;;;5091348;28;20056;-62
2023/11/01 02:33:23;;;;;;;7.00;2.45;;;;;;;;;;5091481;28;20052;-62
2023/11/01 02:35:52;;;;;;;4.18;1.88;;;;;;;;;;5089824;28;20481;-62
2023/11/01 02:38:22;;;;;;;6.88;1.80;;;;;;;;;;5091169;28;20059;-62
2023/11/01 02:40:50;;;;;;;3.67;1.73;;;;;;;;;;5091796;28;20056;-62
2023/11/01 02:43:20;;;;;;;6.30;1.70;;;;;;;;;;5091520;28;20060;-62
2023/11/01 02:45:46;;;;;;;;;;;;;;;;;;5092011;28;20078;-62
2023/11/01 02:48:13;;;;;;;4.15;1.27;;;;;;;;;;5048045;28;1238835;-62
2023/11/01 02:50:40;;;;;;;4.40;1.50;;;;;;;;;;5092377;28;20048;-62
2023/11/01 02:53:07;;;;;;;5.30;1.63;;;;;;;;;;5092485;28;20477;-62
2023/11/01 02:55:33;;;;;;;3.58;1.70;;;;;;;;;;5092261;28;20408;-63
2023/11/01 02:58:02;;;;;;;3.42;1.45;;;;;;;;;;5091954;28;20048;-62
2023/11/01 03:00:30;;;;;;;5.07;1.60;;;;;;;;;;5092649;28;20055;-62
2023/11/01 03:02:57;;;;;;;4.88;1.58;;;;;;;;;;5092135;28;20056;-62
2023/11/01 03:05:25;;;;;;;6.18;1.38;;;;;;;;;;5092287;28;20052;-62
2023/11/01 03:07:52;;;;;;;5.20;1.55;;;;;;;;;;5091807;28;20063;-61
2023/11/01 03:10:19;;;;;;;5.72;1.60;;;;;;;;;;5092090;28;20052;-62
2023/11/01 03:12:46;;;;;;;4.80;1.63;;;;;;;;;;5091967;28;20051;-61
2023/11/01 03:15:13;;;;;;;6.05;1.52;;;;;;;;;;5091907;28;20059;-61
2023/11/01 03:17:42;;;;;;;4.45;1.40;;;;;;;;;;5091592;28;20404;-61
2023/11/01 03:20:10;;;;;;;5.47;1.65;;;;;;;;;;5091843;28;20517;-61
2023/11/01 03:22:37;;;;;;;3.90;1.70;;;;;;;;;;5091831;28;20059;-61
2023/11/01 03:25:04;;;;;;;4.28;1.50;;;;;;;;;;5091899;28;20052;-61
2023/11/01 03:27:31;;;;;;;4.60;1.27;;;;;;;;;;5091838;28;20075;-61
2023/11/01 03:29:58;;;;;;;5.15;1.60;;;;;;;;;;5091464;28;20048;-61
2023/11/01 03:32:25;;;;;;;2.30;1.30;;;;;;;;;;5091504;28;20070;-61
2023/11/01 03:34:53;;;;;;;2.97;1.20;;;;;;;;;;5092123;28;20063;-61
2023/11/01 03:37:20;;;;;;;3.75;1.38;;;;;;;;;;5091525;28;20110;-61
2023/11/01 03:39:47;;;;;;;4.88;1.77;;;;;;;;;;5092288;28;20424;-61
2023/11/01 03:42:13;;;;;;;3.47;1.10;;;;;;;;;;5091882;28;20056;-61
2023/11/01 03:44:40;;;;;;;6.30;1.40;;;;;;;;;;5091939;28;20048;-61
2023/11/01 03:47:07;;;;;;;3.50;1.00;;;;;;;;;;5094563;28;20052;-61
2023/11/01 03:49:34;;;;;;;3.47;1.30;;;;;;;;;;5094963;28;20480;-61
2023/11/01 03:52:02;;;;;;;3.05;1.27;;;;;;;;;;5094933;28;20056;-61
2023/11/01 03:54:29;;;;;;;5.50;1.42;;;;;;;;;;5095426;28;20493;-61
2023/11/01 03:56:58;;;;;;;3.53;1.25;;;;;;;;;;5095229;28;20056;-61
2023/11/01 03:59:25;;;;;;;4.28;1.58;;;;;;;;;;5095095;28;20077;-62
2023/11/01 04:01:52;;;;;;;2.97;1.10;;;;;;;;;;5094919;28;20503;-61
2023/11/01 04:04:19;;;;;;;4.28;1.70;;;;;;;;;;5094964;28;20059;-61
2023/11/01 04:06:45;;;;;;;5.95;1.27;;;;;;;;;;5093337;28;20051;-61
2023/11/01 04:09:14;;;;;;;6.28;1.50;;;;;;;;;;5084692;28;20059;-61
2023/11/01 04:11:41;;;;;;;3.72;1.20;;;;;;;;;;5074741;28;20505;-62
2023/11/01 04:14:08;;;;;;;3.00;1.30;;;;;;;;;;5074614;28;20049;-61
2023/11/01 04:16:35;;;;;;;3.90;1.73;;;;;;;;;;5074359;28;20394;-61
2023/11/01 04:19:02;;;;;;;3.83;1.10;;;;;;;;;;5074064;28;20053;-62
2023/11/01 04:21:29;;;;;;;4.25;1.00;;;;;;;;;;5074218;28;20505;-62
2023/11/01 04:23:55;;;;;;;2.85;1.17;;;;;;;;;;5094258;28;20074;-62
2023/11/01 04:26:24;;;;;;;2.97;0.90;;;;;;;;;;5094062;28;20104;-62
2023/11/01 04:28:51;;;;;;;2.55;0.98;;;;;;;;;;5094412;28;20524;-62
2023/11/01 04:31:24;;;;;;;1.88;0.70;;;;;;;;;;5094640;28;20481;-62
2023/11/01 04:33:51;;;;;;;2.03;0.80;;;;;;;;;;5099608;28;20396;-62
2023/11/01 04:36:25;;;;;;;2.63;0.80;;;;;;;;;;5115098;28;20052;-62
2023/11/01 04:38:57;;;;;;;1.50;0.73;;;;;;;;;;5106486;28;20051;-62
2023/11/01 04:41:27;;;;;;;2.75;0.90;;;;;;;;;;5115188;28;20047;-63
2023/11/01 04:43:55;;;;;;;1.45;0.80;;;;;;;;;;5114795;28;20396;-63
2023/11/01 04:46:23;;;;;;;2.47;0.90;;;;;;;;;;5115112;28;20051;-63
2023/11/01 04:48:52;;;;;;;2.40;0.82;;;;;;;;;;5107913;28;20056;-61
2023/11/01 04:51:19;;;;;;;1.80;0.88;;;;;;;;;;5093954;28;20055;-61
2023/11/01 04:53:46;;;;;;;4.95;1.20;;;;;;;;;;5093837;28;20055;-61
2023/11/01 04:56:13;;;;;;;2.35;0.60;;;;;;;;;;5094008;28;20052;-62
2023/11/01 04:58:41;;;;;;;2.50;1.00;;;;;;;;;;5092879;28;20055;-61
2023/11/01 05:01:08;;;;;;;2.25;0.80;;;;;;;;;;5094213;28;20048;-61
2023/11/01 05:03:35;;;;;;;3.35;0.88;;;;;;;;;;5094170;28;20071;-62
2023/11/01 05:06:02;;;;;;;2.78;1.00;;;;;;;;;;5093925;28;20067;-61
2023/11/01 05:08:28;;;;;;;1.70;0.77;;;;;;;;;;5093911;28;20500;-61
2023/11/01 05:10:55;;;;;;;3.83;1.05;;;;;;;;;;5094205;28;20393;-61
2023/11/01 05:13:22;;;;;;;1.77;0.65;;;;;;;;;;5093509;28;20052;-62
2023/11/01 05:15:51;;;;;;;2.45;0.85;;;;;;;;;;5093550;28;20056;-62
2023/11/01 05:18:19;;;;;;;1.50;0.85;;;;;;;;;;5093267;28;20059;-62
2023/11/01 05:20:46;;;;;;;1.83;0.73;;;;;;;;;;5093764;28;20052;-62
2023/11/01 05:23:13;;;;;;;2.10;0.75;;;;;;;;;;5092948;28;20048;-62
2023/11/01 05:25:40;;;;;;;2.47;0.75;;;;;;;;;;5093450;28;20059;-62
2023/11/01 05:28:07;;;;;;;2.05;0.70;;;;;;;;;;5093196;28;20055;-62
2023/11/01 05:30:34;;;;;;;2.45;0.85;;;;;;;;;;5093459;28;20055;-62
2023/11/01 05:33:02;;;;;;;1.73;0.63;;;;;;;;;;5093041;28;20072;-62
2023/11/01 05:35:29;;;;;;;1.60;0.57;;;;;;;;;;5093340;28;20048;-62
2023/11/01 05:37:58;;;;;;;1.80;0.60;;;;;;;;;;5093442;28;20056;-62
2023/11/01 05:40:25;;;;;;;2.80;0.60;;;;;;;;;;5093347;28;20152;-62
2023/11/01 05:42:52;;;;;;;1.13;0.50;;;;;;;;;;5093323;28;20056;-62
2023/11/01 05:45:20;;;;;;;1.77;0.70;;;;;;;;;;5093509;28;20052;-62
2023/11/01 05:47:50;;;;;;;3.47;0.80;;;;;;;;;;5093363;28;20079;-62
2023/11/01 05:50:19;;;;;;;1.70;0.70;;;;;;;;;;5093174;28;20048;-62
2023/11/01 05:52:46;;;;;;;2.17;0.70;;;;;;;;;;5093214;28;20484;-62
2023/11/01 05:55:13;;;;;;;1.60;0.50;;;;;;;;;;5092787;28;20486;-62
2023/11/01 05:57:42;;;;;;;2.30;0.90;;;;;;;;;;5093145;28;20055;-62
2023/11/01 06:00:10;;;;;;;1.77;0.90;;;;;;;;;;5092354;28;20497;-62
2023/11/01 06:02:37;;;;;;;2.90;0.80;;;;;;;;;;5092590;28;20056;-62
2023/11/01 06:05:05;;;;;;;3.05;1.00;;;;;;;;;;5092648;28;20473;-62
2023/11/01 06:07:33;;;;;;;3.80;1.00;;;;;;;;;;5092754;28;20048;-62
2023/11/01 06:10:00;;;;;;;3.08;0.90;;;;;;;;;;5092949;28;20473;-62
2023/11/01 06:12:26;;;;;;;1.45;0.70;;;;;;;;;;5092817;28;20048;-62
2023/11/01 06:14:53;;;;;;;2.63;0.70;;;;;;;;;;5092486;28;20059;-62
2023/11/01 06:17:20;;;;;;;4.70;1.35;;;;;;;;;;5092756;28;20058;-63
2023/11/01 06:19:48;;;;;;;2.22;0.80;;;;;;;;;;5092490;28;20382;-62
2023/11/01 06:22:16;;;;;;;3.95;1.23;;;;;;;;;;5092545;28;20044;-62
2023/11/01 06:24:44;;;;;;;3.25;1.10;;;;;;;;;;5092078;28;20063;-62
2023/11/01 06:27:12;;;;;;;2.70;1.23;;;;;;;;;;5092708;28;20071;-62
2023/11/01 06:29:42;;;;;;;2.80;1.05;;;;;;;;;;5092110;28;20051;-63
2023/11/01 06:32:09;;;;;;;6.85;1.73;;;;;;;;;;5092162;28;20055;-62
2023/11/01 06:34:36;;;;;;;3.25;1.23;;;;;;;;;;5092396;28;20059;-63
2023/11/01 06:37:03;;;;;;;3.00;1.23;;;;;;;;;;5092469;28;20056;-62
2023/11/01 06:39:29;;;;;;;5.53;1.60;;;;;;;;;;5092644;28;20508;-63
2023/11/01 06:41:58;;;;;;;3.40;1.35;;;;;;;;;;5092210;28;20071;-62
2023/11/01 06:44:24;;;;;;;4.43;1.38;;;;;;;;;;5092011;28;20063;-63
2023/11/01 06:46:52;;;;;;;3.83;1.50;;;;;;;;;;5092210;28;20054;-63
2023/11/01 06:49:19;;;;;;;5.18;1.35;;;;;;;;;;5092009;28;20067;-62
2023/11/01 06:51:46;;;;;;;2.83;1.10;;;;;;;;;;5091962;28;20071;-62
2023/11/01 06:54:13;;;;;;;5.47;1.30;;;;;;;;;;5091716;28;20055;-62
2023/11/01 06:56:43;;;;;;;4.68;1.20;;;;;;;;;;5091775;28;20059;-62
2023/11/01 06:59:11;;;;;;;5.10;1.20;;;;;;;;;;5091832;28;20056;-62
2023/11/01 07:01:38;;;;;;;3.47;1.27;;;;;;;;;;5092218;28;20048;-62
2023/11/01 07:04:05;;;;;;;5.50;1.50;;;;;;;;;;5091874;28;20531;-62
2023/11/01 07:06:32;;;;;;;5.13;1.58;;;;;;;;;;5092347;28;20449;-61
2023/11/01 07:08:59;;;;;;;5.65;1.20;;;;;;;;;;5091237;28;20495;-61
2023/11/01 07:11:25;;;;;;;4.95;1.30;;;;;;;;;;5092191;28;20401;-61
2023/11/01 07:13:52;;;;;;;5.50;1.50;;;;;;;;;;5091685;28;20052;-61
2023/11/01 07:16:20;;;;;;;3.65;1.17;;;;;;;;;;5091740;28;20047;-62
2023/11/01 07:18:47;;;;;;;5.05;1.38;;;;;;;;;;5092084;28;20071;-61
2023/11/01 07:21:14;;;;;;;4.72;1.55;;;;;;;;;;5093146;28;20052;-62
2023/11/01 07:23:40;;;;;;;4.07;1.48;;;;;;;;;;5095265;28;20052;-61
2023/11/01 07:26:07;;;;;;;4.70;1.20;;;;;;;;;;5096067;28;20127;-62
2023/11/01 07:28:35;;;;;;;6.18;1.08;;;;;;;;;;5095008;28;20051;-61
2023/11/01 07:31:02;;;;;;;2.90;1.30;;;;;;;;;;5095810;28;20052;-62
2023/11/01 07:33:33;;;;;;;3.03;1.02;;;;;;;;;;5095452;28;20485;-62
2023/11/01 07:36:00;;;;;;;3.40;1.25;;;;;;;;;;5095587;28;20052;-62
2023/11/01 07:38:27;;;;;;;3.70;1.23;;;;;;;;;;5095694;28;20052;-62
2023/11/01 07:40:54;;;;;;;4.22;1.27;;;;;;;;;;5095719;28;20513;-62
2023/11/01 07:43:22;;;;;;;3.75;1.38;;;;;;;;;;5095638;28;20052;-62
2023/11/01 07:45:49;;;;;;;4.43;1.25;;;;;;;;;;5095628;28;20056;-62
2023/11/01 07:48:16;;;;;;;5.15;1.10;;;;;;;;;;5095148;28;20058;-62
2023/11/01 07:50:48;;;;;;;4.22;1.10;;;;;;;;;;5095198;28;20055;-63
2023/11/01 07:53:14;;;;;;;6.03;1.50;;;;;;;;;;5095187;28;20052;-63
2023/11/01 07:55:41;;;;;;;4.75;1.27;;;;;;;;;;5095235;28;20056;-63
2023/11/01 07:58:08;;;;;;;5.60;1.35;;;;;;;;;;5095080;28;20060;-63
2023/11/01 08:00:35;;;;;;;5.38;1.73;;;;;;;;;;5094972;28;20052;-64
2023/11/01 08:03:03;;;;;;;5.38;1.23;;;;;;;;;;5095160;28;20055;-64
2023/11/01 08:05:29;;;;;;;5.03;1.48;;;;;;;;;;5095059;28;20056;-64
2023/11/01 08:07:57;;;;;;;3.83;0.93;;;;;;;;;;5095009;28;20508;-64
2023/11/01 08:10:24;;;;;;;4.20;1.10;;;;;;;;;;5094650;28;20067;-64
2023/11/01 08:12:51;;;;;;;4.53;1.00;;;;;;;;;;5093716;28;20048;-64
2023/11/01 08:15:20;;;;;;;4.82;1.10;;;;;;;;;;5093398;28;20063;-65
2023/11/01 08:17:47;;;;;;;2.97;1.23;;;;;;;;;;5093732;28;20060;-65
2023/11/01 08:20:14;;;;;;;4.93;1.33;;;;;;;;;;5093953;28;20056;-65
2023/11/01 08:22:41;;;;;;;5.15;1.42;;;;;;;;;;5094342;28;20425;-65
2023/11/01 08:25:12;;;;;;;3.67;1.13;;;;;;;;;;5094500;28;20048;-65
2023/11/01 08:27:39;;;;;;;4.15;1.30;;;;;;;;;;5094657;28;20052;-65
2023/11/01 08:30:06;;;;;;;3.70;1.10;;;;;;;;;;5093905;28;20048;-65
2023/11/01 08:32:33;;;;;;;4.53;1.30;;;;;;;;;;5093756;28;20056;-65
2023/11/01 08:35:00;;;;;;;3.67;1.08;;;;;;;;;;5093889;28;20059;-65
2023/11/01 08:37:27;;;;;;;3.58;1.40;;;;;;;;;;5093991;28;20064;-65
2023/11/01 08:39:53;;;;;;;3.83;1.15;;;;;;;;;;5093942;28;20378;-64
2023/11/01 08:42:21;;;;;;;4.25;1.33;;;;;;;;;;5094183;28;20406;-63
2023/11/01 08:44:48;;;;;;;6.00;1.58;;;;;;;;;;5094022;28;20051;-63
2023/11/01 08:47:30;;;;;;;7.63;1.88;;;;;;;;;;5094182;28;20147;-63
2023/11/01 08:49:57;;;;;;;3.50;1.10;;;;;;;;;;5093748;28;20410;-63
2023/11/01 08:52:24;;;;;;;3.70;1.10;;;;;;;;;;5094277;28;20052;-63
2023/11/01 08:54:51;;;;;;;5.88;1.52;;;;;;;;;;5093596;28;20075;-62
2023/11/01 08:57:22;;;;;;;5.57;1.30;;;;;;;;;;5093595;28;20400;-62
2023/11/01 08:59:50;;;;;;;4.32;1.08;;;;;;;;;;5093721;28;20059;-62
2023/11/01 09:02:17;;;;;;;5.18;1.55;;;;;;;;;;5112895;28;20067;-62
2023/11/01 09:04:44;;;;;;;5.22;1.65;;;;;;;;;;5114366;28;20062;-62
2023/11/01 09:07:11;;;;;;;6.07;1.38;;;;;;;;;;5113782;28;20180;-62
2023/11/01 09:09:38;;;;;;;3.63;1.48;;;;;;;;;;5114302;28;20058;-62
2023/11/01 09:12:05;;;;;;;3.35;1.20;;;;;;;;;;5113758;28;20070;-62
2023/11/01 09:14:32;;;;;;;2.95;1.10;;;;;;;;;;5114257;28;20058;-62
2023/11/01 09:17:00;;;;;;;4.07;1.17;;;;;;;;;;5113533;28;20051;-61
2023/11/01 09:19:28;;;;;;;4.03;1.38;;;;;;;;;;5113994;28;20489;-61
2023/11/01 09:21:55;;;;;;;5.13;1.42;;;;;;;;;;5114168;28;20054;-62
2023/11/01 09:24:22;;;;;;;4.90;1.35;;;;;;;;;;5113551;28;20484;-61
2023/11/01 09:26:49;;;;;;;2.97;1.20;;;;;;;;;;5113728;28;20051;-61
2023/11/01 09:29:15;;;;;;;3.08;1.10;;;;;;;;;;5114078;28;20051;-61
2023/11/01 09:31:46;;;;;;;3.88;1.20;;;;;;;;;;5114062;28;20051;-61
2023/11/01 09:34:14;;;;;;;2.05;0.70;;;;;;;;;;5113544;28;20047;-61
2023/11/01 09:36:41;;;;;;;5.35;1.40;;;;;;;;;;5113517;28;20496;-61
2023/11/01 09:39:08;;;;;;;7.40;1.40;;;;;;;;;;5113433;28;20061;-62
2023/11/01 09:41:39;;;;;;;3.90;1.00;;;;;;;;;;5113946;28;20068;-62
2023/11/01 09:44:07;;;;;;;5.00;1.13;;;;;;;;;;5113320;28;20055;-62
2023/11/01 09:46:35;;;;;;;2.93;0.83;;;;;;;;;;5113560;28;20063;-62
2023/11/01 09:49:04;;;;;;;4.55;1.05;;;;;;;;;;5113384;28;20873;-62
2023/11/01 09:51:34;;;;;;;5.30;1.50;;;;;;;;;;5113847;28;20164;-62
2023/11/01 09:54:01;;;;;;;4.80;1.17;;;;;;;;;;5113664;28;20051;-62
2023/11/01 09:56:32;;;;;;;2.95;1.00;;;;;;;;;;5112924;28;20070;-63
2023/11/01 09:59:00;;;;;;;5.93;1.58;;;;;;;;;;5113554;28;20061;-62
2023/11/01 10:01:27;;;;;;;4.25;1.10;;;;;;;;;;5113447;28;20051;-62
2023/11/01 10:03:57;;;;;;;2.78;1.00;;;;;;;;;;5112618;28;20048;-62
2023/11/01 10:06:27;;;;;;;7.45;1.48;;;;;;;;;;5113296;28;20059;-63
2023/11/01 10:08:55;;;;;;;5.07;1.10;;;;;;;;;;5112990;28;20058;-63
2023/11/01 10:11:22;;;;;;;6.75;1.20;;;;;;;;;;5113210;28;20058;-63
2023/11/01 10:13:49;;;;;;;4.32;1.17;;;;;;;;;;5113037;28;20129;-63
2023/11/01 10:16:16;;;;;;;5.60;1.20;;;;;;;;;;5113232;28;20056;-62
2023/11/01 10:18:44;;;;;;;6.35;1.20;;;;;;;;;;5112671;28;20051;-63
2023/11/01 10:21:11;;;;;;;3.75;1.10;;;;;;;;;;5112470;28;20048;-63
2023/11/01 10:23:37;;;;;;;5.55;1.05;;;;;;;;;;5112715;28;20055;-63
2023/11/01 10:26:06;;;;;;;4.82;1.13;;;;;;;;;;5113002;28;20507;-63
2023/11/01 10:28:34;;;;;;;3.92;1.30;;;;;;;;;;5112917;28;20059;-63
2023/11/01 10:31:02;;;;;;;7.03;1.30;;;;;;;;;;5113022;28;20428;-63
2023/11/01 10:33:30;;;;;;;4.00;1.40;;;;;;;;;;5112808;28;20473;-63
2023/11/01 10:36:00;;;;;;;5.30;1.40;;;;;;;;;;5112872;28;20055;-63
2023/11/01 10:38:28;;;;;;;4.47;1.13;;;;;;;;;;5113167;28;20043;-63
2023/11/01 10:40:57;;;;;;;4.47;1.40;;;;;;;;;;5113341;28;20051;-63
2023/11/01 10:43:26;;;;;;;7.93;1.52;;;;;;;;;;5112877;28;20052;-63
2023/11/01 10:45:53;;;;;;;;;;;;;;;;;;5113316;28;20056;-63
2023/11/01 10:48:20;;;;;;;6.32;1.13;;;;;;;;;;5112880;28;19919;-63
2023/11/01 10:50:48;;;;;;;3.40;1.17;;;;;;;;;;5112485;28;20385;-63
2023/11/01 10:53:14;;;;;;;4.05;1.20;;;;;;;;;;5112500;28;20052;-62
2023/11/01 10:55:42;;;;;;;3.80;1.20;;;;;;;;;;5113352;28;20047;-61
2023/11/01 10:58:14;;;;;;;4.10;1.25;;;;;;;;;;5116579;28;20047;-62
2023/11/01 11:00:46;;;;;;;3.88;1.02;;;;;;;;;;5117311;28;20058;-63
2023/11/01 11:03:18;;;;;;;4.93;1.20;;;;;;;;;;5116669;28;20469;-63
2023/11/01 11:05:45;;;;;;;4.82;1.38;;;;;;;;;;5117179;28;20059;-63
2023/11/01 11:08:12;;;;;;;3.22;1.20;;;;;;;;;;5116657;28;20051;-63
2023/11/01 11:10:39;;;;;;;3.58;1.08;;;;;;;;;;5116954;28;20511;-63
2023/11/01 11:13:23;;;;;;;4.70;1.20;;;;;;;;;;5116429;28;20047;-64
2023/11/01 11:16:00;;;;;;;2.47;1.10;;;;;;;;;;5116747;28;20050;-64
2023/11/01 11:18:28;;;;;;;5.07;1.35;;;;;;;;;;5116199;28;20051;-64
2023/11/01 11:20:55;;;;;;;3.10;1.10;;;;;;;;;;5116602;28;20055;-64
2023/11/01 11:23:30;;;;;;;3.92;1.35;;;;;;;;;;5116451;28;20484;-64
2023/11/01 11:25:58;;;;;;;3.53;1.00;;;;;;;;;;5116257;28;20055;-64
2023/11/01 11:28:43;;;;;;;3.75;1.15;;;;;;;;;;5116325;28;20056;-64
2023/11/01 11:31:12;;;;;;;3.30;1.10;;;;;;;;;;5115998;28;20054;-64
2023/11/01 11:33:39;;;;;;;;;;;;;;;;;;5116444;28;20404;-64
2023/11/01 11:36:08;;;;;;;4.15;1.13;;;;;;;;;;5116458;28;19920;-64
2023/11/01 11:38:36;;;;;;;3.80;1.10;;;;;;;;;;5115669;28;20051;-63
2023/11/01 11:41:12;;;;;;;4.68;1.30;;;;;;;;;;5115899;28;20161;-64
2023/11/01 11:43:58;;;;;;;4.13;1.20;;;;;;;;;;5116231;28;20051;-64
2023/11/01 11:46:30;;;;;;;3.90;1.48;;;;;;;;;;5115925;28;20496;-64
2023/11/01 11:48:58;;;;;;;4.30;1.27;;;;;;;;;;5111637;28;20059;-64
2023/11/01 11:51:25;;;;;;;3.03;1.20;;;;;;;;;;5095539;28;20408;-64
2023/11/01 11:53:52;;;;;;;4.18;1.40;;;;;;;;;;5094951;28;20044;-65
2023/11/01 11:56:19;;;;;;;5.57;1.55;;;;;;;;;;5095117;28;20052;-64
2023/11/01 11:58:46;;;;;;;4.15;1.55;;;;;;;;;;5094701;28;20052;-63
2023/11/01 12:01:23;;;;;;;3.95;1.10;;;;;;;;;;5095109;28;20400;-63
2023/11/01 12:03:51;;;;;;;3.35;1.25;;;;;;;;;;5094975;28;20048;-64
2023/11/01 12:06:19;;;;;;;7.27;1.83;;;;;;;;;;5095122;28;20319;-64
2023/11/01 12:08:45;;;;;;;5.07;1.23;;;;;;;;;;5094951;28;20052;-64
2023/11/01 12:11:12;;;;;;;3.42;1.42;;;;;;;;;;5094860;28;20048;-64
2023/11/01 12:13:39;;;;;;;3.75;1.30;;;;;;;;;;5095009;28;20048;-64
2023/11/01 12:16:07;;;;;;;4.22;1.42;;;;;;;;;;5095099;28;20048;-64
2023/11/01 12:18:34;;;;;;;3.33;1.17;;;;;;;;;;5094799;28;20056;-63
2023/11/01 12:21:10;;;;;;;5.93;1.55;;;;;;;;;;5095580;28;20044;-64
2023/11/01 12:23:43;;;;;;;5.15;1.38;;;;;;;;;;5094505;28;20051;-63
2023/11/01 12:26:10;;;;;;;6.25;1.50;;;;;;;;;;5095130;28;20056;-63
2023/11/01 12:28:37;;;;;;;3.58;1.40;;;;;;;;;;5094448;28;20386;-63
2023/11/01 12:31:13;;;;;;;3.40;1.25;;;;;;;;;;5094096;28;20409;-63
2023/11/01 12:33:40;;;;;;;4.22;1.23;;;;;;;;;;5094357;28;20496;-63
2023/11/01 12:36:09;;;;;;;4.93;1.50;;;;;;;;;;5094453;28;20401;-64
2023/11/01 12:38:36;;;;;;;3.40;1.27;;;;;;;;;;5094192;28;20096;-63
2023/11/01 12:41:09;;;;;;;5.43;1.48;;;;;;;;;;5094264;28;20052;-63
2023/11/01 12:43:36;;;;;;;7.60;1.60;;;;;;;;;;5093707;28;20055;-63
2023/11/01 12:46:03;;;;;;;6.15;1.45;;;;;;;;;;5093681;28;20056;-63
2023/11/01 12:48:30;;;;;;;4.53;1.52;;;;;;;;;;5093999;28;20048;-63
2023/11/01 12:50:57;;;;;;;5.18;1.73;;;;;;;;;;5093891;28;20055;-62
2023/11/01 12:53:25;;;;;;;5.15;1.50;;;;;;;;;;5093573;28;20059;-63
2023/11/01 12:55:52;;;;;;;7.43;1.85;;;;;;;;;;5093701;28;20074;-63
2023/11/01 12:58:19;;;;;;;4.25;1.40;;;;;;;;;;5093791;28;20072;-62
2023/11/01 13:00:46;;;;;;;5.15;1.23;;;;;;;;;;5093655;28;20051;-63
2023/11/01 13:03:13;;;;;;;4.10;1.40;;;;;;;;;;5093896;28;20056;-63
2023/11/01 13:05:40;;;;;;;4.20;1.33;;;;;;;;;;5093969;28;20052;-62
2023/11/01 13:08:08;;;;;;;6.35;1.60;;;;;;;;;;5093900;28;20056;-63
2023/11/01 13:10:37;;;;;;;3.72;1.42;;;;;;;;;;5094463;28;20067;-63
2023/11/01 13:13:04;;;;;;;4.07;1.55;;;;;;;;;;5093796;28;20052;-63
2023/11/01 13:15:31;;;;;;;5.28;1.48;;;;;;;;;;5094306;28;20047;-63
2023/11/01 13:17:59;;;;;;;4.20;1.40;;;;;;;;;;5093365;28;20063;-63
2023/11/01 13:20:25;;;;;;;4.75;1.50;;;;;;;;;;5093657;28;20051;-62
2023/11/01 13:22:52;;;;;;;5.72;1.50;;;;;;;;;;5093870;28;20056;-63
2023/11/01 13:25:19;;;;;;;5.35;1.50;;;;;;;;;;5093968;28;20052;-63
2023/11/01 13:27:47;;;;;;;3.53;1.35;;;;;;;;;;5093323;28;20056;-63
2023/11/01 13:30:14;;;;;;;4.13;1.30;;;;;;;;;;5093787;28;20052;-63
2023/11/01 13:32:41;;;;;;;5.18;1.50;;;;;;;;;;5093266;28;20478;-63
2023/11/01 13:35:08;;;;;;;5.00;1.50;;;;;;;;;;5093575;28;20052;-63
2023/11/01 13:37:35;;;;;;;5.03;1.42;;;;;;;;;;5093461;28;20405;-63
2023/11/01 13:40:03;;;;;;;6.70;1.60;;;;;;;;;;5093448;28;20071;-63
2023/11/01 13:42:30;;;;;;;4.13;1.40;;;;;;;;;;5093036;28;20056;-63
2023/11/01 13:44:58;;;;;;;5.68;1.55;;;;;;;;;;5093189;28;20044;-63
2023/11/01 13:47:25;;;;;;;4.72;1.48;;;;;;;;;;5093096;28;20047;-63
2023/11/01 13:49:51;;;;;;;4.32;1.45;;;;;;;;;;5092540;28;20058;-63
2023/11/01 13:52:18;;;;;;;4.38;1.63;;;;;;;;;;5093056;28;20052;-63
2023/11/01 13:54:45;;;;;;;5.18;1.40;;;;;;;;;;5092552;28;20055;-63
2023/11/01 13:57:12;;;;;;;7.72;2.05;;;;;;;;;;5092872;28;20481;-62
2023/11/01 13:59:39;;;;;;;3.72;1.50;;;;;;;;;;5092626;28;20051;-62
2023/11/01 14:02:07;;;;;;;4.25;1.45;;;;;;;;;;5092721;28;20056;-62
2023/11/01 14:04:34;;;;;;;6.05;1.75;;;;;;;;;;5092738;28;20052;-62
2023/11/01 14:07:00;;;;;;;6.38;2.08;;;;;;;;;;5092529;28;20052;-62
2023/11/01 14:09:27;;;;;;;4.80;1.73;;;;;;;;;;5092727;28;20509;-62
2023/11/01 14:11:54;;;;;;;5.70;1.50;;;;;;;;;;5092977;28;20485;-62
2023/11/01 14:14:22;;;;;;;6.25;1.80;;;;;;;;;;5092493;28;20397;-62
2023/11/01 14:16:50;;;;;;;5.22;2.00;;;;;;;;;;5092381;28;20067;-62
2023/11/01 14:19:19;;;;;;;6.22;1.90;;;;;;;;;;5092612;28;20052;-62
2023/11/01 14:21:45;;;;;;;5.85;1.65;;;;;;;;;;5092379;28;20059;-62
2023/11/01 14:24:12;;;;;;;6.07;1.75;;;;;;;;;;5092637;28;20063;-62
2023/11/01 14:26:39;;;;;;;4.82;1.50;;;;;;;;;;5092982;28;20409;-62
2023/11/01 14:29:06;;;;;;;5.00;2.03;;;;;;;;;;5092402;28;20056;-61
2023/11/01 14:31:33;;;;;;;7.03;2.13;;;;;;;;;;5091766;28;20056;-62
2023/11/01 14:34:00;;;;;;;5.55;1.90;;;;;;;;;;5091939;28;20044;-62
2023/11/01 14:36:28;;;;;;;5.13;1.95;;;;;;;;;;5092468;28;20060;-62
2023/11/01 14:38:55;;;;;;;5.75;2.00;;;;;;;;;;5092088;28;20370;-61
2023/11/01 14:41:22;;;;;;;5.95;1.80;;;;;;;;;;5091961;28;20070;-61
2023/11/01 14:43:48;;;;;;;7.68;2.00;;;;;;;;;;5091656;28;20048;-61
2023/11/01 14:46:15;;;;;;;4.90;1.70;;;;;;;;;;5091920;28;20052;-61